aviador You're here:

LKPD Decoded Metar

PARDUBICE in CZECH REPUBLIC
Report Time2018-07-20 06:00:00
UTC Time2018-07-20 06:39:05
Flight Rules vfr VFR
Wind270° at 05 kt
W.Decomp.*RWY 27: 5.0 kt HW 0.3 kt LCW
W.Rank270° ranks 1
Current wind is below 270° avg. (7.6)
Visibility9999 m
Phenomena:N/A
Clouds:N/A
Expected CloudBase > 1,600 ft AGL from Temp-Dew spread
CeilingNone
Temp18°C (ISA +4)
Dew Point14°C (78% RH)
AAT17.5°C
QNH1016 hPa
Density Alt1,381 ft
Elevation741 ft
Report Wrong Elevation
Raw Report
LKPD 200600Z 27005KT CAVOK 18/14 Q1016 NOSIG=

Extra information for LKPD:More info

Metar Taf Metar & Taf Last 4 Metars F.Rules Stats Wind Profile Meteogram Temp Stats Airport Information Weather charts Add Link Nearby VenuesMetar ALERT Operation Metar Decoded Social comments